• Join FlightAware (Why Join?)
  • Login
  • US Flag 
09:12AM EDT


 

Airport Tracker/Info


-or-


 

Live Flight TrackerFlight Track Log ✈ SWA216 ✈ 27-Apr-2013 ✈ KRSW - KSTL

Flight Track Log - Related Links

Times and Time Zones

All times are in EDT time to prevent confusion due to time zone crossing. See the SWA216 flight status page for this flight to view local times or setup timezone preferences in your user account.

Time Position Orientation Groundspeed Altitude Reporting Facility
EDT Latitude Longitude Course Direction KTS MPH feet Rate Location/Type
04:00PM 26.6800 -81.7222 346° North 242 278 6,000  Level Miami Center
04:01PM 26.7592 -81.7278 356° North 263 303 9,500 2,460 Climbing Miami Center
04:02PM 26.8425 -81.7336 356° North 281 323 11,000 2,040 Climbing Miami Center
04:03PM 26.9403 -81.7425 355° North 316 364 13,600 2,760 Climbing Miami Center
04:04PM 27.1728 -81.7932 347° North  Level FlightAware Approximate
04:04PM 27.0444 -81.7539 354° North 350 403 16,600  Level Miami Center
04:05PM 27.2783 -81.8224 346° North  Level FlightAware Approximate
04:05PM 27.1456 -81.7839 345° North 372 428 19,000  Level Miami Center
04:06PM 27.2531 -81.8186 344° North 384 442 21,400 2,340 Climbing Miami Center
04:07PM 27.3728 -81.8589 343° North 402 463 23,700 2,160 Climbing Miami Center
04:08PM 27.4881 -81.9014 342° North 421 484 25,800 1,980 Climbing Miami Center
04:09PM 27.6056 -81.9439 342° North 429 494 27,700 1,620 Climbing Miami Center
04:10PM 27.7125 -81.9839 342° North 446 513 29,100 1,140 Climbing Miami Center
04:11PM 27.8347 -82.0106 349° North 454 522 30,000 480 Climbing Miami Center
04:13PM 28.1058 -82.1208 340° North 432 497 30,800 960 Climbing Jacksonville Center
04:14PM 28.2025 -82.2072 322° Northwest 437 503 33,100 1,860 Climbing Jacksonville Center
04:15PM 28.2947 -82.2914 321° Northwest 437 503 34,600 1,440 Climbing Jacksonville Center
04:16PM 28.3908 -82.3758 322° Northwest 431 496 36,000 1,380 Climbing Jacksonville Center
04:17PM 28.4811 -82.4581 321° Northwest 431 496 37,400 960 Climbing Jacksonville Center
04:18PM 28.5731 -82.5403 322° Northwest 425 489 38,000 300 Climbing Jacksonville Center
04:19PM 28.6672 -82.6253 322° Northwest 425 489 38,000  Level Jacksonville Center
04:20PM 28.7592 -82.6961 326° Northwest 420 483 38,000  Level Jacksonville Center
04:21PM 28.8594 -82.7669 328° Northwest 420 483 38,000  Level Jacksonville Center
04:22PM 28.9575 -82.8403 327° Northwest 420 483 38,000  Level Jacksonville Center
04:23PM 29.0556 -82.9117 328° Northwest 420 483 38,000  Level Jacksonville Center
04:24PM 29.1539 -82.9831 328° Northwest 420 483 38,000  Level Jacksonville Center
04:25PM 29.2517 -83.0544 328° Northwest 420 483 38,000  Level Jacksonville Center
04:26PM 29.3478 -83.1261 327° Northwest 420 483 38,000  Level Jacksonville Center
04:27PM 29.4478 -83.1978 328° Northwest 420 483 38,000  Level Jacksonville Center
04:28PM 29.5436 -83.2722 326° Northwest 421 484 38,000  Level Jacksonville Center
04:29PM 29.6414 -83.3442 327° Northwest 421 484 38,000  Level Jacksonville Center
04:30PM 29.7414 -83.4164 328° Northwest 421 484 38,000  Level Jacksonville Center
04:31PM 29.8392 -83.4889 327° Northwest 421 484 38,000  Level Jacksonville Center
04:32PM 29.9369 -83.5589 328° Northwest 421 484 38,000  Level Jacksonville Center
04:33PM 30.0347 -83.6339 326° Northwest 416 479 38,000  Level Jacksonville Center
04:34PM 30.1303 -83.7067 327° Northwest 416 479 38,000  Level Jacksonville Center
04:35PM 30.2281 -83.7772 328° Northwest 416 479 38,000  Level Jacksonville Center
04:36PM 30.3153 -83.8431 327° Northwest 416 479 38,000  Level Jacksonville Center
04:37PM 30.4128 -83.9164 327° Northwest 416 479 38,000  Level Jacksonville Center
04:38PM 30.5103 -83.9922 326° Northwest 421 484 38,000  Level Jacksonville Center
04:39PM 30.6161 -84.0753 326° Northwest 416 479 38,000  Level Jacksonville Center
04:40PM 30.7133 -84.1467 328° Northwest 421 484 38,000  Level Jacksonville Center
04:41PM 30.8128 -84.2231 327° Northwest 421 484 38,000  Level Jacksonville Center
04:42PM 30.9122 -84.2994 327° Northwest 421 484 38,000  Level Jacksonville Center
04:43PM 31.0075 -84.3711 327° Northwest 421 484 38,000  Level Jacksonville Center
04:44PM 31.1047 -84.4478 326° Northwest 421 484 38,000  Level Jacksonville Center
04:45PM 31.2039 -84.5200 328° Northwest 421 484 38,000  Level Jacksonville Center
04:46PM 31.3011 -84.5969 326° Northwest 421 484 38,000  Level Jacksonville Center
04:47PM 31.4003 -84.6719 327° Northwest 421 484 38,000  Level Jacksonville Center
04:49PM 31.6125 -84.8386 326° Northwest 417 480 38,000  Level Atlanta Center
04:50PM 31.7100 -84.9153 326° Northwest 422 486 38,000  Level Atlanta Center
04:51PM 31.8078 -84.9869 328° Northwest 415 478 38,000  Level Atlanta Center
04:52PM 31.9031 -85.0639 326° Northwest 415 478 38,000  Level Atlanta Center
04:53PM 31.9797 -85.1258 326° Northwest 415 478 38,000  Level Atlanta Center
04:54PM 32.0958 -85.2133 327° Northwest 422 486 38,000  Level Atlanta Center
04:55PM 32.1911 -85.2881 326° Northwest 417 480 38,000  Level Atlanta Center
04:56PM 32.2842 -85.3631 326° Northwest 417 480 38,000  Level Atlanta Center
04:57PM 32.3836 -85.4383 327° Northwest 417 480 38,000  Level Atlanta Center
04:58PM 32.4831 -85.5164 326° Northwest 422 486 38,000  Level Atlanta Center
04:59PM 32.5781 -85.5942 325° Northwest 422 486 38,000  Level Atlanta Center
05:00PM 32.6750 -85.6700 327° Northwest 422 486 38,000  Level Atlanta Center
05:01PM 32.7722 -85.7483 326° Northwest 422 486 38,000  Level Atlanta Center
05:02PM 32.8650 -85.8244 325° Northwest 422 486 38,000  Level Atlanta Center
05:03PM 32.9619 -85.9006 327° Northwest 422 486 38,000  Level Atlanta Center
05:04PM 33.0569 -85.9769 326° Northwest 422 486 38,000  Level Atlanta Center
05:05PM 33.1331 -86.0431 324° Northwest 422 486 38,000  Level Atlanta Center
05:06PM 33.2464 -86.1328 326° Northwest 416 479 38,000  Level Atlanta Center
05:07PM 33.3411 -86.2097 326° Northwest 416 479 38,000  Level Atlanta Center
05:08PM 33.4378 -86.2867 326° Northwest 416 479 38,000  Level Atlanta Center
05:09PM 33.5322 -86.3664 325° Northwest 421 484 38,000  Level Atlanta Center
05:10PM 33.6164 -86.4361 325° Northwest 421 484 38,000  Level Atlanta Center
05:11PM 33.7150 -86.5136 327° Northwest 421 484 38,000  Level Atlanta Center
05:12PM 33.8225 -86.5717 336° Northwest 421 484 38,000  Level Atlanta Center
05:13PM 33.9319 -86.6325 335° Northwest 421 484 38,000  Level Atlanta Center
05:15PM 34.0942 -86.7881 322° Northwest 440 506 38,000  Level Memphis Center
05:16PM 34.1700 -86.8878 313° West 423 487 38,000  Level Memphis Center
05:17PM 34.2311 -86.9858 307° West 417 480 38,000  Level Memphis Center
05:18PM 34.3050 -87.0936 310° West 409 471 38,000  Level Memphis Center
05:19PM 34.3828 -87.1911 314° West 404 465 38,000  Level Memphis Center
05:20PM 34.4764 -87.2658 327° Northwest 398 458 38,000  Level Memphis Center
05:21PM 34.5700 -87.3406 327° Northwest 407 468 38,000  Level Memphis Center
05:22PM 34.6767 -87.4328 325° Northwest 418 481 38,000  Level Memphis Center
05:23PM 34.7722 -87.5078 327° Northwest 418 481 38,000  Level Memphis Center
05:24PM 34.8722 -87.5906 326° Northwest 428 493 38,000  Level Memphis Center
05:25PM 34.9678 -87.6658 327° Northwest 422 486 38,000  Level Memphis Center
05:26PM 35.0675 -87.7489 326° Northwest 422 486 38,000  Level Memphis Center
05:27PM 35.1567 -87.8197 327° Northwest 429 494 38,000  Level Memphis Center
05:28PM 35.2542 -87.9008 326° Northwest 429 494 38,000  Level Memphis Center
05:29PM 35.3517 -87.9794 327° Northwest 429 494 38,000  Level Memphis Center
05:30PM 35.4514 -88.0658 325° Northwest 437 503 38,000  Level Memphis Center
05:31PM 35.5486 -88.1472 326° Northwest 432 497 38,000  Level Memphis Center
05:32PM 35.6481 -88.2211 329° Northwest 427 491 38,000  Level Memphis Center
05:33PM 35.7494 -88.3056 326° Northwest 432 497 38,000  Level Memphis Center
05:34PM 35.8469 -88.3903 325° Northwest 432 497 38,000  Level Memphis Center
05:35PM 35.9481 -88.4672 328° Northwest 432 497 38,000  Level Memphis Center
05:36PM 36.0575 -88.5314 335° Northwest 427 491 38,000  Level Memphis Center
05:37PM 36.1669 -88.5958 335° Northwest 427 491 38,000  Level Memphis Center
05:38PM 36.2783 -88.6603 335° Northwest 433 498 38,000  Level Memphis Center
05:39PM 36.3875 -88.7278 334° Northwest 433 498 38,000  Level Memphis Center
05:40PM 36.4969 -88.7925 335° Northwest 428 493 38,000  Level Memphis Center
05:41PM 36.6122 -88.8497 338° Northwest 428 493 38,000 -300 Level Memphis Center
05:42PM 36.7275 -88.9072 338° Northwest 433 498 37,500 -780 Descending Memphis Center
05:43PM 36.8386 -88.9675 337° Northwest 438 504 36,500 -960 Descending Memphis Center
05:44PM 36.9519 -89.0331 335° Northwest 438 504 35,600 -960 Descending Memphis Center
05:45PM 37.0281 -89.1486 310° West 432 497 34,600 -840 Descending Memphis Center
05:47PM 37.1300 -89.3694 300° West 421 484 33,400 -840 Descending Kansas City Center
05:48PM 37.2019 -89.5203 301° West 421 484 32,300 -960 Descending Kansas City Center
05:49PM 37.2986 -89.6122 323° Northwest 446 513 31,300 -1,020 Descending Kansas City Center
05:50PM 37.4403 -89.6875 337° Northwest 458 527 30,100 -1,260 Descending Kansas City Center
05:51PM 37.5536 -89.7511 336° Northwest 450 518 28,800 -1,860 Descending Kansas City Center
05:52PM 37.6719 -89.8175 336° Northwest 431 496 26,400 -2,220 Descending Kansas City Center
05:53PM 37.7781 -89.8747 337° Northwest 419 482 24,300 -2,100 Descending Kansas City Center
05:54PM 37.8872 -89.9339 337° Northwest 405 466 22,100 -2,100 Descending Kansas City Center
05:55PM 37.9878 -89.9872 337° Northwest 394 453 20,100 -1,920 Descending Kansas City Center
05:56PM 38.0847 -90.0428 336° Northwest 384 442 18,200 -2,040 Descending Kansas City Center
05:57PM 38.1864 -90.1006 336° Northwest 373 429 16,000 -2,100 Descending Kansas City Center
05:58PM 38.2794 -90.1522 336° Northwest 367 422 14,000 -1,920 Descending Kansas City Center
05:59PM 38.3686 -90.2031 336° Northwest 354 407 12,100 -1,800 Descending Kansas City Center
06:00PM 38.4569 -90.2539 336° Northwest 347 399 10,400 -1,200 Descending Kansas City Center
06:01PM 38.5375 -90.2989 336° Northwest 328 377 9,700 -1,020 Descending Kansas City Center
06:02PM 38.6081 -90.3397 336° Northwest 293 337 8,400 -1,140 Descending Kansas City Center
06:03PM 38.6669 -90.4014 321° Northwest 272 313 7,400 -900 Descending Kansas City Center
06:04PM 38.7050 -90.4800 302° West 253 291 6,600 -900 Descending Kansas City Center
06:05PM 38.7403 -90.5522 302° West 242 278 5,600 -1,020 Descending Kansas City Center
06:06PM 38.7744 -90.6219 302° West 235 270 4,600 -1,020 Descending Kansas City Center
06:07PM 38.8225 -90.6450 340° North 238 274 3,600 -840 Descending Kansas City Center
06:08PM 38.8353 -90.5725 77° East 223 257 3,000 -300 Descending Kansas City Center
06:09PM 38.8194 -90.5125 109° East 205 236 3,000 -480 Level Kansas City Center
06:10PM 38.7942 -90.4614 122° Southeast 181 208 2,100 -840 Descending Kansas City Center
06:12PM 38.7719 -90.4178 123° Southeast 163 188 1,300 -780 Descending Kansas City Center
06:13PM 38.7533 -90.3781 121° Southeast 143 165 600 -720 Descending Kansas City Center